sensor_id;sensor_type;location;lat;lon;timestamp;pressure;altitude;pressure_sealevel;temperature;humidity
53647;BME280;39550;52.230;5.194;2023-02-01T00:01:13;101834.56;;;4.09;87.03
53647;BME280;39550;52.230;5.194;2023-02-01T00:03:38;101813.16;;;4.06;86.85
53647;BME280;39550;52.230;5.194;2023-02-01T00:06:05;101825.19;;;4.08;86.52
53647;BME280;39550;52.230;5.194;2023-02-01T00:08:31;101820.88;;;4.07;86.66
53647;BME280;39550;52.230;5.194;2023-02-01T00:11:10;101823.34;;;4.06;86.56
53647;BME280;39550;52.230;5.194;2023-02-01T00:13:40;101825.97;;;4.07;87.10
53647;BME280;39550;52.230;5.194;2023-02-01T00:16:22;101825.19;;;4.08;86.46
53647;BME280;39550;52.230;5.194;2023-02-01T00:18:58;101825.97;;;4.07;86.50
53647;BME280;39550;52.230;5.194;2023-02-01T00:21:24;101820.88;;;4.07;86.66
53647;BME280;39550;52.230;5.194;2023-02-01T00:23:50;101820.88;;;4.07;86.52
53647;BME280;39550;52.230;5.194;2023-02-01T00:26:18;101820.00;;;4.07;86.80
53647;BME280;39550;52.230;5.194;2023-02-01T00:28:44;101813.88;;;4.03;86.19
53647;BME280;39550;52.230;5.194;2023-02-01T00:31:10;101814.03;;;4.06;86.25
53647;BME280;39550;52.230;5.194;2023-02-01T00:33:36;101819.19;;;4.08;86.09
53647;BME280;39550;52.230;5.194;2023-02-01T00:36:04;101814.16;;;4.09;86.44
53647;BME280;39550;52.230;5.194;2023-02-01T00:38:32;101818.41;;;4.09;86.07
53647;BME280;39550;52.230;5.194;2023-02-01T00:41:14;101826.84;;;4.08;86.18
53647;BME280;39550;52.230;5.194;2023-02-01T00:43:41;101817.38;;;4.05;86.20
53647;BME280;39550;52.230;5.194;2023-02-01T00:46:08;101812.25;;;4.05;86.60
53647;BME280;39550;52.230;5.194;2023-02-01T00:48:34;101820.88;;;4.07;86.08
53647;BME280;39550;52.230;5.194;2023-02-01T00:51:00;101814.81;;;4.05;85.92
53647;BME280;39550;52.230;5.194;2023-02-01T00:53:26;101819.13;;;4.06;86.05
53647;BME280;39550;52.230;5.194;2023-02-01T00:55:51;101819.13;;;4.06;85.95
53647;BME280;39550;52.230;5.194;2023-02-01T00:58:17;101805.56;;;4.07;85.84
53647;BME280;39550;52.230;5.194;2023-02-01T01:00:42;101817.44;;;4.07;85.65
53647;BME280;39550;52.230;5.194;2023-02-01T01:03:10;101810.69;;;4.07;85.71
53647;BME280;39550;52.230;5.194;2023-02-01T01:05:46;101796.97;;;4.05;85.68
53647;BME280;39550;52.230;5.194;2023-02-01T01:08:12;101800.47;;;4.07;86.34
53647;BME280;39550;52.230;5.194;2023-02-01T01:10:41;101802.06;;;4.05;86.36
53647;BME280;39550;52.230;5.194;2023-02-01T01:13:07;101798.72;;;4.06;86.07
53647;BME280;39550;52.230;5.194;2023-02-01T01:15:39;101803.81;;;4.06;86.17
53647;BME280;39550;52.230;5.194;2023-02-01T01:18:06;101798.72;;;4.06;86.06
53647;BME280;39550;52.230;5.194;2023-02-01T01:20:31;101790.13;;;4.04;86.08
53647;BME280;39550;52.230;5.194;2023-02-01T01:22:59;101799.56;;;4.07;85.92
53647;BME280;39550;52.230;5.194;2023-02-01T01:25:24;101802.88;;;4.04;85.57
53647;BME280;39550;52.230;5.194;2023-02-01T01:27:49;101802.06;;;4.05;86.37
53647;BME280;39550;52.230;5.194;2023-02-01T01:30:15;101797.78;;;4.04;86.27
53647;BME280;39550;52.230;5.194;2023-02-01T01:32:41;101788.44;;;4.05;86.07
53647;BME280;39550;52.230;5.194;2023-02-01T01:35:06;101796.97;;;4.05;85.37
53647;BME280;39550;52.230;5.194;2023-02-01T01:37:32;101799.50;;;4.05;85.97
53647;BME280;39550;52.230;5.194;2023-02-01T01:39:57;101787.66;;;4.06;85.89
53647;BME280;39550;52.230;5.194;2023-02-01T01:42:23;101803.75;;;4.05;85.82
53647;BME280;39550;52.230;5.194;2023-02-01T01:45:16;101796.97;;;4.05;85.26
53647;BME280;39550;52.230;5.194;2023-02-01T01:47:47;101791.84;;;4.05;85.42
53647;BME280;39550;52.230;5.194;2023-02-01T01:50:18;101787.56;;;4.04;85.38
53647;BME280;39550;52.230;5.194;2023-02-01T01:53:11;101788.50;;;4.06;85.91
53647;BME280;39550;52.230;5.194;2023-02-01T01:55:42;101778.31;;;4.06;85.07
53647;BME280;39550;52.230;5.194;2023-02-01T01:58:15;101772.34;;;4.06;85.14
53647;BME280;39550;52.230;5.194;2023-02-01T02:00:42;101770.50;;;4.03;85.37
53647;BME280;39550;52.230;5.194;2023-02-01T02:03:17;101764.75;;;4.07;85.75
53647;BME280;39550;52.230;5.194;2023-02-01T02:05:47;101763.00;;;4.06;85.74
53647;BME280;39550;52.230;5.194;2023-02-01T02:08:14;101774.97;;;4.07;86.03
53647;BME280;39550;52.230;5.194;2023-02-01T02:11:07;101766.53;;;4.08;85.58
53647;BME280;39550;52.230;5.194;2023-02-01T02:13:42;101768.97;;;4.07;85.65
53647;BME280;39550;52.230;5.194;2023-02-01T02:16:19;101765.56;;;4.06;85.92
53647;BME280;39550;52.230;5.194;2023-02-01T02:19:29;101761.44;;;4.08;84.93
53647;BME280;39550;52.230;5.194;2023-02-01T02:34:17;101738.38;;;4.07;86.05
53647;BME280;39550;52.230;5.194;2023-02-01T02:37:15;101739.25;;;4.07;85.86
53647;BME280;39550;52.230;5.194;2023-02-01T02:42:52;101735.91;;;4.08;85.20
53647;BME280;39550;52.230;5.194;2023-02-01T02:45:53;101743.56;;;4.08;85.58
53647;BME280;39550;52.230;5.194;2023-02-01T02:48:44;101725.72;;;4.08;84.98
53647;BME280;39550;52.230;5.194;2023-02-01T02:51:18;101716.31;;;4.07;85.12
53647;BME280;39550;52.230;5.194;2023-02-01T02:54:11;101714.63;;;4.08;85.70
53647;BME280;39550;52.230;5.194;2023-02-01T02:56:58;101712.97;;;4.08;85.29
53647;BME280;39550;52.230;5.194;2023-02-01T02:59:45;101701.78;;;4.06;85.21
53647;BME280;39550;52.230;5.194;2023-02-01T03:02:32;101698.44;;;4.07;85.60
53647;BME280;39550;52.230;5.194;2023-02-01T03:05:17;101701.66;;;4.03;85.22
53647;BME280;39550;52.230;5.194;2023-02-01T03:10:30;101695.75;;;4.04;85.37
53647;BME280;39550;52.230;5.194;2023-02-01T03:13:09;101697.41;;;4.04;85.30
53647;BME280;39550;52.230;5.194;2023-02-01T03:15:39;101706.03;;;4.06;85.62
53647;BME280;39550;52.230;5.194;2023-02-01T03:20:59;101703.41;;;4.04;85.42
53647;BME280;39550;52.230;5.194;2023-02-01T03:23:28;101700.88;;;4.04;85.68
53647;BME280;39550;52.230;5.194;2023-02-01T03:25:55;101700.88;;;4.04;85.97
53647;BME280;39550;52.230;5.194;2023-02-01T03:28:23;101703.41;;;4.04;85.75
53647;BME280;39550;52.230;5.194;2023-02-01T03:30:50;101705.00;;;4.02;85.34
53647;BME280;39550;52.230;5.194;2023-02-01T03:33:20;101712.66;;;4.02;85.89
53647;BME280;39550;52.230;5.194;2023-02-01T03:36:15;101710.16;;;4.04;85.28
53647;BME280;39550;52.230;5.194;2023-02-01T03:39:15;101706.69;;;4.02;85.45
53647;BME280;39550;52.230;5.194;2023-02-01T03:41:53;101711.84;;;4.03;85.51
53647;BME280;39550;52.230;5.194;2023-02-01T03:46:52;101705.00;;;4.02;85.71
53647;BME280;39550;52.230;5.194;2023-02-01T03:49:25;101711.72;;;4.00;85.71
53647;BME280;39550;52.230;5.194;2023-02-01T03:51:52;101715.28;;;4.04;85.19
53647;BME280;39550;52.230;5.194;2023-02-01T03:54:19;101713.63;;;4.04;85.26
53647;BME280;39550;52.230;5.194;2023-02-01T03:56:46;101723.81;;;4.04;85.50
53647;BME280;39550;52.230;5.194;2023-02-01T03:59:13;101713.63;;;4.04;85.76
53647;BME280;39550;52.230;5.194;2023-02-01T04:01:39;101716.16;;;4.04;85.56
53647;BME280;39550;52.230;5.194;2023-02-01T04:04:06;101706.03;;;4.06;85.17
53647;BME280;39550;52.230;5.194;2023-02-01T04:06:32;101703.41;;;4.04;84.88
53647;BME280;39550;52.230;5.194;2023-02-01T04:08:57;101720.44;;;4.05;85.23
53647;BME280;39550;52.230;5.194;2023-02-01T04:11:22;101712.00;;;4.06;85.62
53647;BME280;39550;52.230;5.194;2023-02-01T04:13:48;101710.25;;;4.05;85.53
53647;BME280;39550;52.230;5.194;2023-02-01T04:16:13;101717.88;;;4.05;85.23
53647;BME280;39550;52.230;5.194;2023-02-01T04:18:39;101727.22;;;4.05;84.93
53647;BME280;39550;52.230;5.194;2023-02-01T04:21:05;101729.00;;;4.06;85.38
53647;BME280;39550;52.230;5.194;2023-02-01T04:23:30;101717.09;;;4.06;85.23
53647;BME280;39550;52.230;5.194;2023-02-01T04:26:01;101714.53;;;4.06;85.72
53647;BME280;39550;52.230;5.194;2023-02-01T04:28:27;101710.25;;;4.05;85.65
53647;BME280;39550;52.230;5.194;2023-02-01T04:30:53;101713.63;;;4.04;85.66
53647;BME280;39550;52.230;5.194;2023-02-01T04:33:18;101722.91;;;4.04;85.46
53647;BME280;39550;52.230;5.194;2023-02-01T04:35:43;101711.84;;;4.03;85.67
53647;BME280;39550;52.230;5.194;2023-02-01T04:38:09;101705.00;;;4.02;85.80
53647;BME280;39550;52.230;5.194;2023-02-01T04:40:34;101710.09;;;4.02;85.42
53647;BME280;39550;52.230;5.194;2023-02-01T04:43:02;101705.00;;;4.02;85.08
53647;BME280;39550;52.230;5.194;2023-02-01T04:45:28;101705.00;;;4.02;85.38
53647;BME280;39550;52.230;5.194;2023-02-01T04:47:54;101703.25;;;4.01;85.51
53647;BME280;39550;52.230;5.194;2023-02-01T04:50:19;101706.75;;;4.03;85.43
53647;BME280;39550;52.230;5.194;2023-02-01T04:52:45;101707.53;;;4.02;85.46
53647;BME280;39550;52.230;5.194;2023-02-01T04:55:11;101724.59;;;4.03;85.31
53647;BME280;39550;52.230;5.194;2023-02-01T04:57:38;101705.00;;;4.02;85.14
53647;BME280;39550;52.230;5.194;2023-02-01T05:00:06;101701.66;;;4.03;85.69
53647;BME280;39550;52.230;5.194;2023-02-01T05:02:31;101705.00;;;4.02;85.64
53647;BME280;39550;52.230;5.194;2023-02-01T05:04:57;101694.34;;;3.93;85.85
53647;BME280;39550;52.230;5.194;2023-02-01T05:07:22;101698.13;;;4.01;85.45
53647;BME280;39550;52.230;5.194;2023-02-01T05:09:48;101706.75;;;4.03;85.00
53647;BME280;39550;52.230;5.194;2023-02-01T05:12:13;101691.44;;;4.03;85.88
53647;BME280;39550;52.230;5.194;2023-02-01T05:14:57;101693.94;;;4.02;85.60
53647;BME280;39550;52.230;5.194;2023-02-01T05:17:22;101688.84;;;4.02;85.54
53647;BME280;39550;52.230;5.194;2023-02-01T05:19:47;101693.94;;;4.02;85.46
53647;BME280;39550;52.230;5.194;2023-02-01T05:22:13;101696.56;;;4.03;85.70
53647;BME280;39550;52.230;5.194;2023-02-01T05:24:38;101708.50;;;4.04;85.91
53647;BME280;39550;52.230;5.194;2023-02-01T05:27:03;101722.06;;;4.03;85.76
53647;BME280;39550;52.230;5.194;2023-02-01T05:29:29;101715.28;;;4.04;85.58
53647;BME280;39550;52.230;5.194;2023-02-01T05:31:54;101728.03;;;4.04;85.58
53647;BME280;39550;52.230;5.194;2023-02-01T05:34:20;101711.84;;;4.03;85.49
53647;BME280;39550;52.230;5.194;2023-02-01T05:36:45;101722.06;;;4.03;85.14
53647;BME280;39550;52.230;5.194;2023-02-01T05:39:10;101726.25;;;4.03;85.27
53647;BME280;39550;52.230;5.194;2023-02-01T05:41:36;101713.44;;;4.01;85.59
53647;BME280;39550;52.230;5.194;2023-02-01T05:44:02;101695.09;;;3.90;85.57
53647;BME280;39550;52.230;5.194;2023-02-01T05:46:28;101706.75;;;4.03;85.54
53647;BME280;39550;52.230;5.194;2023-02-01T05:48:53;101708.50;;;4.04;85.96
53647;BME280;39550;52.230;5.194;2023-02-01T05:51:18;101728.91;;;4.04;85.76
53647;BME280;39550;52.230;5.194;2023-02-01T05:53:44;101706.75;;;4.03;85.88
53647;BME280;39550;52.230;5.194;2023-02-01T05:56:09;101705.00;;;4.02;85.68
53647;BME280;39550;52.230;5.194;2023-02-01T05:58:34;101618.09;;;3.45;85.99
53647;BME280;39550;52.230;5.194;2023-02-01T06:01:01;101569.28;;;3.19;85.48
53647;BME280;39550;52.230;5.194;2023-02-01T06:03:26;101707.53;;;4.02;85.86
53647;BME280;39550;52.230;5.194;2023-02-01T06:05:52;101586.38;;;3.22;85.22
53647;BME280;39550;52.230;5.194;2023-02-01T06:08:18;101583.78;;;3.20;85.68
53647;BME280;39550;52.230;5.194;2023-02-01T06:10:43;101613.88;;;3.46;85.94
53647;BME280;39550;52.230;5.194;2023-02-01T06:13:08;101679.09;;;3.77;85.30
53647;BME280;39550;52.230;5.194;2023-02-01T06:15:34;101714.25;;;4.00;85.44
53647;BME280;39550;52.230;5.194;2023-02-01T06:18:03;101555.22;;;3.10;84.99
53647;BME280;39550;52.230;5.194;2023-02-01T06:20:29;101615.78;;;3.50;85.56
53647;BME280;39550;52.230;5.194;2023-02-01T06:22:55;101624.22;;;3.49;85.73
53647;BME280;39550;52.230;5.194;2023-02-01T06:25:20;101700.91;;;3.88;85.47
53647;BME280;39550;52.230;5.194;2023-02-01T06:27:46;101586.88;;;3.15;85.34
53647;BME280;39550;52.230;5.194;2023-02-01T06:30:12;101721.16;;;4.03;85.63
53647;BME280;39550;52.230;5.194;2023-02-01T06:32:40;101696.59;;;3.87;85.32
53647;BME280;39550;52.230;5.194;2023-02-01T06:35:09;101716.81;;;4.00;85.29
53647;BME280;39550;52.230;5.194;2023-02-01T06:37:41;101701.19;;;3.94;85.33
53647;BME280;39550;52.230;5.194;2023-02-01T06:40:07;101696.59;;;3.87;85.37
53647;BME280;39550;52.230;5.194;2023-02-01T06:42:33;101559.03;;;3.01;85.26
53647;BME280;39550;52.230;5.194;2023-02-01T06:44:59;101663.44;;;3.69;85.34
53647;BME280;39550;52.230;5.194;2023-02-01T06:47:24;101686.91;;;3.80;85.75
53647;BME280;39550;52.230;5.194;2023-02-01T06:49:49;101714.91;;;3.96;85.63
53647;BME280;39550;52.230;5.194;2023-02-01T06:52:15;101600.88;;;3.23;85.30
53647;BME280;39550;52.230;5.194;2023-02-01T06:54:40;101555.56;;;2.99;85.31
53647;BME280;39550;52.230;5.194;2023-02-01T06:57:07;101568.59;;;3.05;85.26
53647;BME280;39550;52.230;5.194;2023-02-01T06:59:35;101709.50;;;3.90;85.66
53647;BME280;39550;52.230;5.194;2023-02-01T07:02:01;101683.09;;;3.71;85.29
53647;BME280;39550;52.230;5.194;2023-02-01T07:04:26;101641.03;;;3.45;85.54
53647;BME280;39550;52.230;5.194;2023-02-01T07:06:51;101705.75;;;3.83;85.32
53647;BME280;39550;52.230;5.194;2023-02-01T07:09:17;101606.25;;;3.29;85.68
53647;BME280;39550;52.230;5.194;2023-02-01T07:11:42;101717.41;;;3.95;85.25
53647;BME280;39550;52.230;5.194;2023-02-01T07:14:10;101622.81;;;3.37;85.25
53647;BME280;39550;52.230;5.194;2023-02-01T07:16:35;101700.91;;;3.88;85.31
53647;BME280;39550;52.230;5.194;2023-02-01T07:19:01;101734.88;;;4.05;84.83
53647;BME280;39550;52.230;5.194;2023-02-01T07:21:27;101732.25;;;4.03;85.16
53647;BME280;39550;52.230;5.194;2023-02-01T07:23:53;101723.63;;;4.01;85.63
53647;BME280;39550;52.230;5.194;2023-02-01T07:26:21;101725.53;;;4.05;85.51
53647;BME280;39550;52.230;5.194;2023-02-01T07:28:46;101729.84;;;4.06;85.56
53647;BME280;39550;52.230;5.194;2023-02-01T07:31:16;101589.78;;;3.22;85.30
53647;BME280;39550;52.230;5.194;2023-02-01T07:33:47;101726.44;;;4.06;85.19
53647;BME280;39550;52.230;5.194;2023-02-01T07:36:15;101711.13;;;3.88;85.42
53647;BME280;39550;52.230;5.194;2023-02-01T07:38:41;101719.25;;;3.99;85.87
53647;BME280;39550;52.230;5.194;2023-02-01T07:41:07;101722.63;;;3.98;85.35
53647;BME280;39550;52.230;5.194;2023-02-01T07:43:33;101726.84;;;3.97;85.90
53647;BME280;39550;52.230;5.194;2023-02-01T07:45:59;101738.28;;;4.05;85.71
53647;BME280;39550;52.230;5.194;2023-02-01T07:48:26;101724.38;;;3.99;85.28
53647;BME280;39550;52.230;5.194;2023-02-01T07:50:59;101732.25;;;4.03;85.19
53647;BME280;39550;52.230;5.194;2023-02-01T07:53:25;101684.28;;;3.78;84.73
53647;BME280;39550;52.230;5.194;2023-02-01T07:55:50;101715.84;;;3.98;85.28
53647;BME280;39550;52.230;5.194;2023-02-01T07:58:15;101719.13;;;3.96;85.21
53647;BME280;39550;52.230;5.194;2023-02-01T08:00:41;101731.00;;;3.95;85.06
53647;BME280;39550;52.230;5.194;2023-02-01T08:03:25;101687.50;;;3.74;85.04
53647;BME280;39550;52.230;5.194;2023-02-01T08:05:54;101739.78;;;4.00;85.70
53647;BME280;39550;52.230;5.194;2023-02-01T08:08:19;101699.13;;;3.69;85.49
53647;BME280;39550;52.230;5.194;2023-02-01T08:10:45;101678.72;;;3.69;85.28
53647;BME280;39550;52.230;5.194;2023-02-01T08:13:10;101659.50;;;3.57;85.36
53647;BME280;39550;52.230;5.194;2023-02-01T08:15:35;101744.38;;;4.07;85.64
53647;BME280;39550;52.230;5.194;2023-02-01T08:18:01;101654.31;;;3.56;85.41
53647;BME280;39550;52.230;5.194;2023-02-01T08:20:27;101610.06;;;3.37;84.74
53647;BME280;39550;52.230;5.194;2023-02-01T08:22:53;101681.63;;;3.77;85.66
53647;BME280;39550;52.230;5.194;2023-02-01T08:25:19;101658.47;;;3.72;85.11
53647;BME280;39550;52.230;5.194;2023-02-01T08:27:44;101671.63;;;3.80;85.34
53647;BME280;39550;52.230;5.194;2023-02-01T08:30:11;101652.69;;;3.58;85.21
53647;BME280;39550;52.230;5.194;2023-02-01T08:32:36;101712.00;;;4.06;85.34
53647;BME280;39550;52.230;5.194;2023-02-01T08:35:03;101610.69;;;3.50;85.01
53647;BME280;39550;52.230;5.194;2023-02-01T08:37:29;101562.88;;;3.28;85.30
53647;BME280;39550;52.230;5.194;2023-02-01T08:39:54;101570.59;;;3.29;85.38
53647;BME280;39550;52.230;5.194;2023-02-01T08:42:20;101558.84;;;3.31;84.67
53647;BME280;39550;52.230;5.194;2023-02-01T08:45:05;101710.19;;;4.22;84.91
53647;BME280;39550;52.230;5.194;2023-02-01T08:47:33;101634.59;;;3.70;84.54
53647;BME280;39550;52.230;5.194;2023-02-01T08:49:58;101682.69;;;3.98;84.40
53647;BME280;39550;52.230;5.194;2023-02-01T08:52:24;101724.69;;;4.23;84.60
53647;BME280;39550;52.230;5.194;2023-02-01T08:54:49;101730.72;;;4.25;84.46
53647;BME280;39550;52.230;5.194;2023-02-01T08:57:15;101726.72;;;4.30;84.31
53647;BME280;39550;52.230;5.194;2023-02-01T08:59:40;101706.91;;;4.24;84.42
53647;BME280;39550;52.230;5.194;2023-02-01T09:02:08;101597.75;;;3.63;84.52
53647;BME280;39550;52.230;5.194;2023-02-01T09:04:35;101613.50;;;3.72;84.15
53647;BME280;39550;52.230;5.194;2023-02-01T09:07:00;101641.31;;;3.86;84.21
53647;BME280;39550;52.230;5.194;2023-02-01T09:09:27;101715.94;;;4.36;84.32
53647;BME280;39550;52.230;5.194;2023-02-01T09:11:52;101606.78;;;3.74;84.70
53647;BME280;39550;52.230;5.194;2023-02-01T09:14:18;101610.25;;;3.77;84.41
53647;BME280;39550;52.230;5.194;2023-02-01T09:16:43;101633.00;;;3.90;84.14
53647;BME280;39550;52.230;5.194;2023-02-01T09:19:09;101702.97;;;4.31;84.31
53647;BME280;39550;52.230;5.194;2023-02-01T09:21:34;101715.78;;;4.33;84.26
53647;BME280;39550;52.230;5.194;2023-02-01T09:24:00;101702.97;;;4.31;84.51
53647;BME280;39550;52.230;5.194;2023-02-01T09:26:25;101571.53;;;3.48;84.51
53647;BME280;39550;52.230;5.194;2023-02-01T09:28:51;101573.25;;;3.49;84.41
53647;BME280;39550;52.230;5.194;2023-02-01T09:31:17;101655.03;;;3.88;84.66
53647;BME280;39550;52.230;5.194;2023-02-01T09:33:42;101614.63;;;3.61;84.75
53647;BME280;39550;52.230;5.194;2023-02-01T09:36:07;101709.59;;;4.28;84.14
53647;BME280;39550;52.230;5.194;2023-02-01T09:38:33;101652.59;;;3.91;84.87
53647;BME280;39550;52.230;5.194;2023-02-01T09:40:58;101695.25;;;4.12;84.38
53647;BME280;39550;52.230;5.194;2023-02-01T09:46:37;101706.19;;;4.27;84.65
53647;BME280;39550;52.230;5.194;2023-02-01T09:49:28;101714.63;;;4.26;84.86
53647;BME280;39550;52.230;5.194;2023-02-01T09:51:55;101713.84;;;4.27;84.95
53647;BME280;39550;52.230;5.194;2023-02-01T09:54:25;101683.00;;;4.04;84.89
53647;BME280;39550;52.230;5.194;2023-02-01T09:59:41;101708.66;;;4.25;84.57
53647;BME280;39550;52.230;5.194;2023-02-01T10:02:17;101702.53;;;4.22;84.96
53647;BME280;39550;52.230;5.194;2023-02-01T10:04:44;101703.50;;;4.24;84.76
53647;BME280;39550;52.230;5.194;2023-02-01T10:10:16;101636.94;;;3.83;84.87
53647;BME280;39550;52.230;5.194;2023-02-01T10:18:50;101722.13;;;4.23;85.41
53647;BME280;39550;52.230;5.194;2023-02-01T10:21:39;101719.59;;;4.23;85.01
53647;BME280;39550;52.230;5.194;2023-02-01T10:27:19;101719.59;;;4.23;85.15
53647;BME280;39550;52.230;5.194;2023-02-01T10:29:51;101711.72;;;4.36;85.63
53647;BME280;39550;52.230;5.194;2023-02-01T10:32:27;101651.94;;;4.13;85.15
53647;BME280;39550;52.230;5.194;2023-02-01T10:34:59;101688.25;;;4.25;85.04
53647;BME280;39550;52.230;5.194;2023-02-01T10:37:33;101682.44;;;4.28;85.31
53647;BME280;39550;52.230;5.194;2023-02-01T10:42:43;101578.22;;;3.82;84.88
53647;BME280;39550;52.230;5.194;2023-02-01T10:45:17;101586.53;;;3.78;85.24
53647;BME280;39550;52.230;5.194;2023-02-01T10:47:44;101695.97;;;4.45;84.93
53647;BME280;39550;52.230;5.194;2023-02-01T10:50:18;101689.69;;;4.38;84.61
53647;BME280;39550;52.230;5.194;2023-02-01T10:52:51;101644.50;;;4.18;84.76
53647;BME280;39550;52.230;5.194;2023-02-01T10:56:08;101706.16;;;4.45;85.34
53647;BME280;39550;52.230;5.194;2023-02-01T11:01:00;101692.19;;;4.37;85.61
53647;BME280;39550;52.230;5.194;2023-02-01T11:03:58;101693.88;;;4.36;85.46
53647;BME280;39550;52.230;5.194;2023-02-01T11:06:31;101691.31;;;4.36;85.33
53647;BME280;39550;52.230;5.194;2023-02-01T11:09:21;101695.69;;;4.39;84.96
53647;BME280;39550;52.230;5.194;2023-02-01T11:17:02;101683.00;;;4.40;85.08
53647;BME280;39550;52.230;5.194;2023-02-01T11:19:56;101680.50;;;4.42;85.07
53647;BME280;39550;52.230;5.194;2023-02-01T11:22:24;101691.53;;;4.41;85.66
53647;BME280;39550;52.230;5.194;2023-02-01T11:24:50;101688.25;;;4.43;84.83
53647;BME280;39550;52.230;5.194;2023-02-01T11:27:21;101683.41;;;4.50;85.22
53647;BME280;39550;52.230;5.194;2023-02-01T11:29:52;101705.44;;;4.48;85.19
53647;BME280;39550;52.230;5.194;2023-02-01T11:32:20;101692.69;;;4.48;85.21
53647;BME280;39550;52.230;5.194;2023-02-01T11:34:51;101688.44;;;4.48;84.86
53647;BME280;39550;52.230;5.194;2023-02-01T11:37:31;101680.84;;;4.50;85.63
53647;BME280;39550;52.230;5.194;2023-02-01T11:42:58;101680.06;;;4.51;85.67
53647;BME280;39550;52.230;5.194;2023-02-01T11:45:30;101644.56;;;4.37;84.85
53647;BME280;39550;52.230;5.194;2023-02-01T11:48:00;101620.34;;;4.29;85.57
53647;BME280;39550;52.230;5.194;2023-02-01T11:53:40;101656.28;;;4.52;84.65
53647;BME280;39550;52.230;5.194;2023-02-01T11:59:10;101659.03;;;4.56;84.30
53647;BME280;39550;52.230;5.194;2023-02-01T12:01:54;101674.66;;;4.63;84.70
53647;BME280;39550;52.230;5.194;2023-02-01T12:10:28;101620.00;;;4.39;84.92
53647;BME280;39550;52.230;5.194;2023-02-01T12:21:36;101658.44;;;4.62;84.59
53647;BME280;39550;52.230;5.194;2023-02-01T12:24:15;101650.66;;;4.59;85.50
53647;BME280;39550;52.230;5.194;2023-02-01T12:29:55;101658.44;;;4.62;85.24
53647;BME280;39550;52.230;5.194;2023-02-01T12:37:52;101649.19;;;4.64;84.68
53647;BME280;39550;52.230;5.194;2023-02-01T12:40:26;101655.03;;;4.62;84.82
53647;BME280;39550;52.230;5.194;2023-02-01T12:43:01;101625.53;;;4.49;84.58
53647;BME280;39550;52.230;5.194;2023-02-01T12:45:39;101610.88;;;4.45;84.87
53647;BME280;39550;52.230;5.194;2023-02-01T12:48:25;101656.84;;;4.64;84.46
53647;BME280;39550;52.230;5.194;2023-02-01T12:51:13;101653.63;;;4.68;85.13
53647;BME280;39550;52.230;5.194;2023-02-01T12:56:18;101603.22;;;4.45;84.49
53647;BME280;39550;52.230;5.194;2023-02-01T12:58:50;101635.88;;;4.52;85.09
53647;BME280;39550;52.230;5.194;2023-02-01T13:01:31;101649.25;;;4.66;85.22
53647;BME280;39550;52.230;5.194;2023-02-01T13:06:47;101654.34;;;4.66;84.92
53647;BME280;39550;52.230;5.194;2023-02-01T13:12:47;101619.19;;;4.40;85.34
53647;BME280;39550;52.230;5.194;2023-02-01T13:17:51;101631.50;;;4.49;85.73
53647;BME280;39550;52.230;5.194;2023-02-01T13:20:35;101628.75;;;4.45;85.14
53647;BME280;39550;52.230;5.194;2023-02-01T13:23:25;101636.59;;;4.49;84.89
53647;BME280;39550;52.230;5.194;2023-02-01T13:25:53;101645.63;;;4.60;85.21
53647;BME280;39550;52.230;5.194;2023-02-01T13:28:29;101647.63;;;4.68;84.92
53647;BME280;39550;52.230;5.194;2023-02-01T13:40:37;101624.31;;;4.60;84.47
53647;BME280;39550;52.230;5.194;2023-02-01T13:43:14;101652.28;;;4.76;84.82
53647;BME280;39550;52.230;5.194;2023-02-01T13:45:45;101633.88;;;4.64;84.70
53647;BME280;39550;52.230;5.194;2023-02-01T13:48:21;101646.03;;;4.70;84.25
53647;BME280;39550;52.230;5.194;2023-02-01T13:50:56;101654.03;;;4.77;84.99
53647;BME280;39550;52.230;5.194;2023-02-01T13:56:26;101631.19;;;4.61;84.47
53647;BME280;39550;52.230;5.194;2023-02-01T13:58:52;101623.53;;;4.61;85.14
53647;BME280;39550;52.230;5.194;2023-02-01T14:04:00;101620.63;;;4.53;85.01
53647;BME280;39550;52.230;5.194;2023-02-01T14:11:53;101652.22;;;4.75;85.14
53647;BME280;39550;52.230;5.194;2023-02-01T14:19:37;101669.63;;;4.84;84.46
53647;BME280;39550;52.230;5.194;2023-02-01T14:24:59;101639.91;;;4.66;85.58
53647;BME280;39550;52.230;5.194;2023-02-01T14:27:27;101605.25;;;4.52;84.94
53647;BME280;39550;52.230;5.194;2023-02-01T14:29:58;101613.81;;;4.54;85.12
53647;BME280;39550;52.230;5.194;2023-02-01T14:32:38;101635.53;;;4.64;85.18
53647;BME280;39550;52.230;5.194;2023-02-01T14:35:20;101643.41;;;4.68;85.28
53647;BME280;39550;52.230;5.194;2023-02-01T14:37:50;101594.59;;;4.42;84.80
53647;BME280;39550;52.230;5.194;2023-02-01T14:40:23;101628.47;;;4.58;85.42
53647;BME280;39550;52.230;5.194;2023-02-01T14:42:51;101648.78;;;4.74;84.87
53647;BME280;39550;52.230;5.194;2023-02-01T14:53:22;101602.50;;;4.29;85.58
53647;BME280;39550;52.230;5.194;2023-02-01T15:01:30;101633.25;;;4.50;85.84
53647;BME280;39550;52.230;5.194;2023-02-01T15:12:18;101617.50;;;4.41;85.89
53647;BME280;39550;52.230;5.194;2023-02-01T15:15:16;101694.88;;;4.77;86.02
53647;BME280;39550;52.230;5.194;2023-02-01T15:17:58;101628.44;;;4.38;86.02
53647;BME280;39550;52.230;5.194;2023-02-01T15:20:32;101637.06;;;4.40;86.05
53647;BME280;39550;52.230;5.194;2023-02-01T15:23:03;101644.66;;;4.39;86.61
53647;BME280;39550;52.230;5.194;2023-02-01T15:25:31;101697.34;;;4.76;86.06
53647;BME280;39550;52.230;5.194;2023-02-01T15:27:57;101699.06;;;4.75;86.71
53647;BME280;39550;52.230;5.194;2023-02-01T15:30:29;101709.34;;;4.77;86.83
53647;BME280;39550;52.230;5.194;2023-02-01T15:33:13;101708.47;;;4.76;86.98
53647;BME280;39550;52.230;5.194;2023-02-01T15:43:37;101723.63;;;4.73;86.77
53647;BME280;39550;52.230;5.194;2023-02-01T15:46:09;101664.16;;;4.38;86.89
53647;BME280;39550;52.230;5.194;2023-02-01T15:48:47;101717.72;;;4.74;86.56
53647;BME280;39550;52.230;5.194;2023-02-01T15:51:16;101650.50;;;4.36;85.99